sensor_id;sensor_type;location;lat;lon;timestamp;temperature;humidity
8684;DHT22;4379;59.744;18.206;2023-06-14T00:01:52;11.80;99.90
8684;DHT22;4379;59.744;18.206;2023-06-14T00:04:20;11.90;99.90
8684;DHT22;4379;59.744;18.206;2023-06-14T00:06:48;12.00;99.90
8684;DHT22;4379;59.744;18.206;2023-06-14T00:09:18;12.00;99.90
8684;DHT22;4379;59.744;18.206;2023-06-14T00:11:45;12.00;99.90
8684;DHT22;4379;59.744;18.206;2023-06-14T00:14:12;12.10;99.90
8684;DHT22;4379;59.744;18.206;2023-06-14T00:16:40;12.20;99.90
8684;DHT22;4379;59.744;18.206;2023-06-14T00:19:09;12.30;99.90
8684;DHT22;4379;59.744;18.206;2023-06-14T00:21:38;12.20;99.90
8684;DHT22;4379;59.744;18.206;2023-06-14T00:24:05;12.10;99.90
8684;DHT22;4379;59.744;18.206;2023-06-14T00:26:33;12.20;99.90
8684;DHT22;4379;59.744;18.206;2023-06-14T00:29:00;12.20;99.90
8684;DHT22;4379;59.744;18.206;2023-06-14T00:31:28;12.20;99.90
8684;DHT22;4379;59.744;18.206;2023-06-14T00:33:55;12.30;99.90
8684;DHT22;4379;59.744;18.206;2023-06-14T00:36:22;12.20;99.90
8684;DHT22;4379;59.744;18.206;2023-06-14T00:38:50;12.20;99.90
8684;DHT22;4379;59.744;18.206;2023-06-14T00:41:17;12.10;99.90
8684;DHT22;4379;59.744;18.206;2023-06-14T00:43:45;12.10;99.90
8684;DHT22;4379;59.744;18.206;2023-06-14T00:46:12;12.10;99.90
8684;DHT22;4379;59.744;18.206;2023-06-14T00:48:39;12.10;99.90
8684;DHT22;4379;59.744;18.206;2023-06-14T00:51:07;12.10;99.90
8684;DHT22;4379;59.744;18.206;2023-06-14T00:53:35;12.20;99.90
8684;DHT22;4379;59.744;18.206;2023-06-14T00:56:03;12.20;99.90
8684;DHT22;4379;59.744;18.206;2023-06-14T00:58:31;12.10;99.90
8684;DHT22;4379;59.744;18.206;2023-06-14T01:00:59;12.20;99.90
8684;DHT22;4379;59.744;18.206;2023-06-14T01:03:26;12.20;99.90
8684;DHT22;4379;59.744;18.206;2023-06-14T01:09:09;12.30;99.90
8684;DHT22;4379;59.744;18.206;2023-06-14T01:12:13;12.40;99.90
8684;DHT22;4379;59.744;18.206;2023-06-14T01:14:43;12.30;99.90
8684;DHT22;4379;59.744;18.206;2023-06-14T01:17:11;12.30;99.90
8684;DHT22;4379;59.744;18.206;2023-06-14T01:19:43;12.30;99.90
8684;DHT22;4379;59.744;18.206;2023-06-14T01:22:12;12.30;99.90
8684;DHT22;4379;59.744;18.206;2023-06-14T01:24:40;12.30;99.90
8684;DHT22;4379;59.744;18.206;2023-06-14T01:27:12;12.30;99.90
8684;DHT22;4379;59.744;18.206;2023-06-14T01:29:40;12.30;99.90
8684;DHT22;4379;59.744;18.206;2023-06-14T01:32:13;12.30;99.90
8684;DHT22;4379;59.744;18.206;2023-06-14T01:34:41;12.30;99.90
8684;DHT22;4379;59.744;18.206;2023-06-14T01:37:09;12.30;99.90
8684;DHT22;4379;59.744;18.206;2023-06-14T01:39:37;12.30;99.90
8684;DHT22;4379;59.744;18.206;2023-06-14T01:42:05;12.30;99.90
8684;DHT22;4379;59.744;18.206;2023-06-14T01:44:33;12.40;99.90
8684;DHT22;4379;59.744;18.206;2023-06-14T01:47:01;12.40;99.90
8684;DHT22;4379;59.744;18.206;2023-06-14T01:49:28;12.40;99.90
8684;DHT22;4379;59.744;18.206;2023-06-14T01:51:56;12.50;99.90
8684;DHT22;4379;59.744;18.206;2023-06-14T01:54:23;12.60;99.90
8684;DHT22;4379;59.744;18.206;2023-06-14T01:56:53;12.50;99.90
8684;DHT22;4379;59.744;18.206;2023-06-14T01:59:20;12.60;99.90
8684;DHT22;4379;59.744;18.206;2023-06-14T02:01:47;12.50;99.90
8684;DHT22;4379;59.744;18.206;2023-06-14T02:04:15;12.50;99.90
8684;DHT22;4379;59.744;18.206;2023-06-14T02:06:42;12.40;99.90
8684;DHT22;4379;59.744;18.206;2023-06-14T02:09:10;12.30;99.90
8684;DHT22;4379;59.744;18.206;2023-06-14T02:11:37;12.50;99.90
8684;DHT22;4379;59.744;18.206;2023-06-14T02:14:04;12.50;99.90
8684;DHT22;4379;59.744;18.206;2023-06-14T02:16:33;12.50;99.90
8684;DHT22;4379;59.744;18.206;2023-06-14T02:19:03;12.20;99.90
8684;DHT22;4379;59.744;18.206;2023-06-14T02:21:31;12.20;99.90
8684;DHT22;4379;59.744;18.206;2023-06-14T02:23:58;12.20;99.90
8684;DHT22;4379;59.744;18.206;2023-06-14T02:26:26;12.30;99.90
8684;DHT22;4379;59.744;18.206;2023-06-14T02:28:55;12.40;99.90
8684;DHT22;4379;59.744;18.206;2023-06-14T02:31:23;12.40;99.90
8684;DHT22;4379;59.744;18.206;2023-06-14T02:33:51;12.50;99.90
8684;DHT22;4379;59.744;18.206;2023-06-14T02:36:19;12.50;99.90
8684;DHT22;4379;59.744;18.206;2023-06-14T02:38:46;12.60;99.90
8684;DHT22;4379;59.744;18.206;2023-06-14T02:41:13;12.70;99.90
8684;DHT22;4379;59.744;18.206;2023-06-14T02:43:41;12.90;99.90
8684;DHT22;4379;59.744;18.206;2023-06-14T02:46:08;12.90;99.90
8684;DHT22;4379;59.744;18.206;2023-06-14T02:48:36;12.90;99.90
8684;DHT22;4379;59.744;18.206;2023-06-14T02:51:03;13.10;99.90
8684;DHT22;4379;59.744;18.206;2023-06-14T02:53:31;13.10;99.90
8684;DHT22;4379;59.744;18.206;2023-06-14T02:55:58;13.20;99.90
8684;DHT22;4379;59.744;18.206;2023-06-14T02:58:26;13.30;99.90
8684;DHT22;4379;59.744;18.206;2023-06-14T03:00:53;13.40;99.90
8684;DHT22;4379;59.744;18.206;2023-06-14T03:03:21;13.50;99.90
8684;DHT22;4379;59.744;18.206;2023-06-14T03:05:50;13.70;99.90
8684;DHT22;4379;59.744;18.206;2023-06-14T03:08:18;13.70;99.90
8684;DHT22;4379;59.744;18.206;2023-06-14T03:10:47;13.80;99.90
8684;DHT22;4379;59.744;18.206;2023-06-14T03:13:15;13.90;99.90
8684;DHT22;4379;59.744;18.206;2023-06-14T03:15:48;14.00;99.90
8684;DHT22;4379;59.744;18.206;2023-06-14T03:18:21;14.00;99.90
8684;DHT22;4379;59.744;18.206;2023-06-14T03:20:53;14.10;99.90
8684;DHT22;4379;59.744;18.206;2023-06-14T03:23:21;14.30;99.90
8684;DHT22;4379;59.744;18.206;2023-06-14T03:25:48;14.40;99.90
8684;DHT22;4379;59.744;18.206;2023-06-14T03:28:15;14.50;99.90
8684;DHT22;4379;59.744;18.206;2023-06-14T03:30:43;14.60;99.90
8684;DHT22;4379;59.744;18.206;2023-06-14T03:33:10;14.70;99.90
8684;DHT22;4379;59.744;18.206;2023-06-14T03:35:38;14.80;99.90
8684;DHT22;4379;59.744;18.206;2023-06-14T03:38:05;14.80;99.90
8684;DHT22;4379;59.744;18.206;2023-06-14T03:40:33;14.80;99.90
8684;DHT22;4379;59.744;18.206;2023-06-14T03:43:00;14.90;99.90
8684;DHT22;4379;59.744;18.206;2023-06-14T03:45:28;14.90;99.90
8684;DHT22;4379;59.744;18.206;2023-06-14T03:47:55;15.10;99.90
8684;DHT22;4379;59.744;18.206;2023-06-14T03:50:24;15.30;99.90
8684;DHT22;4379;59.744;18.206;2023-06-14T03:52:51;15.60;99.90
8684;DHT22;4379;59.744;18.206;2023-06-14T03:55:19;16.00;99.90
8684;DHT22;4379;59.744;18.206;2023-06-14T03:57:50;16.30;99.90
8684;DHT22;4379;59.744;18.206;2023-06-14T04:00:17;16.40;99.90
8684;DHT22;4379;59.744;18.206;2023-06-14T04:02:45;16.40;99.90
8684;DHT22;4379;59.744;18.206;2023-06-14T04:05:13;16.50;99.90
8684;DHT22;4379;59.744;18.206;2023-06-14T04:07:40;16.70;99.90
8684;DHT22;4379;59.744;18.206;2023-06-14T04:10:12;16.90;99.90
8684;DHT22;4379;59.744;18.206;2023-06-14T04:12:40;17.00;99.90
8684;DHT22;4379;59.744;18.206;2023-06-14T04:15:10;16.90;99.90
8684;DHT22;4379;59.744;18.206;2023-06-14T04:17:47;16.60;99.90
8684;DHT22;4379;59.744;18.206;2023-06-14T04:20:15;16.80;99.90
8684;DHT22;4379;59.744;18.206;2023-06-14T04:22:46;16.90;99.90
8684;DHT22;4379;59.744;18.206;2023-06-14T04:25:13;16.90;99.90
8684;DHT22;4379;59.744;18.206;2023-06-14T04:27:40;17.00;99.90
8684;DHT22;4379;59.744;18.206;2023-06-14T04:30:09;17.10;99.90
8684;DHT22;4379;59.744;18.206;2023-06-14T04:32:36;17.00;99.90
8684;DHT22;4379;59.744;18.206;2023-06-14T04:35:09;17.00;99.90
8684;DHT22;4379;59.744;18.206;2023-06-14T04:37:37;17.00;99.90
8684;DHT22;4379;59.744;18.206;2023-06-14T04:40:07;17.00;99.90
8684;DHT22;4379;59.744;18.206;2023-06-14T04:42:38;17.00;99.90
8684;DHT22;4379;59.744;18.206;2023-06-14T04:45:08;17.00;99.90
8684;DHT22;4379;59.744;18.206;2023-06-14T04:47:36;17.00;99.90
8684;DHT22;4379;59.744;18.206;2023-06-14T04:50:05;17.20;99.90
8684;DHT22;4379;59.744;18.206;2023-06-14T04:52:32;17.40;99.90
8684;DHT22;4379;59.744;18.206;2023-06-14T04:55:00;18.50;99.90
8684;DHT22;4379;59.744;18.206;2023-06-14T04:57:27;20.20;99.90
8684;DHT22;4379;59.744;18.206;2023-06-14T04:59:56;22.40;99.90
8684;DHT22;4379;59.744;18.206;2023-06-14T05:02:25;24.90;99.90
8684;DHT22;4379;59.744;18.206;2023-06-14T05:04:53;26.20;98.90
8684;DHT22;4379;59.744;18.206;2023-06-14T05:07:21;26.40;98.30
8684;DHT22;4379;59.744;18.206;2023-06-14T05:09:50;26.30;98.00
8684;DHT22;4379;59.744;18.206;2023-06-14T05:12:18;26.00;98.70
8684;DHT22;4379;59.744;18.206;2023-06-14T05:14:45;26.20;98.20
8684;DHT22;4379;59.744;18.206;2023-06-14T05:17:13;25.90;97.80
8684;DHT22;4379;59.744;18.206;2023-06-14T05:19:40;26.00;98.30
8684;DHT22;4379;59.744;18.206;2023-06-14T05:22:08;26.40;97.70
8684;DHT22;4379;59.744;18.206;2023-06-14T05:24:35;27.20;96.60
8684;DHT22;4379;59.744;18.206;2023-06-14T05:27:02;27.90;96.90
8684;DHT22;4379;59.744;18.206;2023-06-14T05:29:30;29.30;94.90
8684;DHT22;4379;59.744;18.206;2023-06-14T05:31:57;31.60;92.60
8684;DHT22;4379;59.744;18.206;2023-06-14T05:34:25;33.40;91.50
8684;DHT22;4379;59.744;18.206;2023-06-14T05:36:52;35.30;88.90
8684;DHT22;4379;59.744;18.206;2023-06-14T05:39:19;36.90;85.40
8684;DHT22;4379;59.744;18.206;2023-06-14T05:41:47;36.80;83.90
8684;DHT22;4379;59.744;18.206;2023-06-14T05:44:16;37.30;84.60
8684;DHT22;4379;59.744;18.206;2023-06-14T05:46:44;37.10;77.10
8684;DHT22;4379;59.744;18.206;2023-06-14T05:49:11;38.20;82.90
8684;DHT22;4379;59.744;18.206;2023-06-14T05:51:39;40.10;78.60
8684;DHT22;4379;59.744;18.206;2023-06-14T05:54:06;39.60;77.20
8684;DHT22;4379;59.744;18.206;2023-06-14T05:56:33;40.30;76.10
8684;DHT22;4379;59.744;18.206;2023-06-14T05:59:01;40.60;73.90
8684;DHT22;4379;59.744;18.206;2023-06-14T06:01:29;40.30;76.20
8684;DHT22;4379;59.744;18.206;2023-06-14T06:03:57;40.50;75.10
8684;DHT22;4379;59.744;18.206;2023-06-14T06:06:24;42.30;72.40
8684;DHT22;4379;59.744;18.206;2023-06-14T06:08:52;42.20;70.80
8684;DHT22;4379;59.744;18.206;2023-06-14T06:11:19;41.80;73.60
8684;DHT22;4379;59.744;18.206;2023-06-14T06:13:47;43.20;70.60
8684;DHT22;4379;59.744;18.206;2023-06-14T06:16:14;44.10;68.60
8684;DHT22;4379;59.744;18.206;2023-06-14T06:18:42;44.90;70.00
8684;DHT22;4379;59.744;18.206;2023-06-14T06:21:11;44.80;71.20
8684;DHT22;4379;59.744;18.206;2023-06-14T06:23:38;44.20;67.40
8684;DHT22;4379;59.744;18.206;2023-06-14T06:26:06;44.20;69.10
8684;DHT22;4379;59.744;18.206;2023-06-14T06:28:34;44.40;66.10
8684;DHT22;4379;59.744;18.206;2023-06-14T06:31:01;44.70;64.20
8684;DHT22;4379;59.744;18.206;2023-06-14T06:33:31;44.20;66.50
8684;DHT22;4379;59.744;18.206;2023-06-14T06:35:58;43.60;67.10
8684;DHT22;4379;59.744;18.206;2023-06-14T06:38:25;44.10;65.40
8684;DHT22;4379;59.744;18.206;2023-06-14T06:40:53;45.80;65.10
8684;DHT22;4379;59.744;18.206;2023-06-14T06:43:21;46.50;63.20
8684;DHT22;4379;59.744;18.206;2023-06-14T06:45:48;44.00;63.40
8684;DHT22;4379;59.744;18.206;2023-06-14T06:48:16;42.00;66.40
8684;DHT22;4379;59.744;18.206;2023-06-14T06:50:43;43.30;66.30
8684;DHT22;4379;59.744;18.206;2023-06-14T06:53:11;43.90;63.30
8684;DHT22;4379;59.744;18.206;2023-06-14T06:55:38;40.30;64.10
8684;DHT22;4379;59.744;18.206;2023-06-14T06:58:06;41.00;66.00
8684;DHT22;4379;59.744;18.206;2023-06-14T07:00:33;42.30;66.00
8684;DHT22;4379;59.744;18.206;2023-06-14T07:03:00;42.90;63.80
8684;DHT22;4379;59.744;18.206;2023-06-14T07:05:31;43.50;62.50
8684;DHT22;4379;59.744;18.206;2023-06-14T07:07:59;44.10;63.30
8684;DHT22;4379;59.744;18.206;2023-06-14T07:10:27;45.10;61.70
8684;DHT22;4379;59.744;18.206;2023-06-14T07:12:54;43.20;60.60
8684;DHT22;4379;59.744;18.206;2023-06-14T07:15:22;42.70;61.60
8684;DHT22;4379;59.744;18.206;2023-06-14T07:17:49;45.00;61.60
8684;DHT22;4379;59.744;18.206;2023-06-14T07:20:17;46.40;59.10
8684;DHT22;4379;59.744;18.206;2023-06-14T07:22:45;46.30;59.50
8684;DHT22;4379;59.744;18.206;2023-06-14T07:25:13;46.20;59.90
8684;DHT22;4379;59.744;18.206;2023-06-14T07:27:45;45.40;59.90
8684;DHT22;4379;59.744;18.206;2023-06-14T07:30:13;45.20;58.50
8684;DHT22;4379;59.744;18.206;2023-06-14T07:32:41;44.20;60.00
8684;DHT22;4379;59.744;18.206;2023-06-14T07:35:09;44.60;60.80
8684;DHT22;4379;59.744;18.206;2023-06-14T07:37:36;44.80;59.60
8684;DHT22;4379;59.744;18.206;2023-06-14T07:40:04;45.20;59.30
8684;DHT22;4379;59.744;18.206;2023-06-14T07:42:35;46.20;58.40
8684;DHT22;4379;59.744;18.206;2023-06-14T07:45:06;45.80;58.80
8684;DHT22;4379;59.744;18.206;2023-06-14T07:47:33;43.40;59.50
8684;DHT22;4379;59.744;18.206;2023-06-14T07:50:01;41.30;62.30
8684;DHT22;4379;59.744;18.206;2023-06-14T07:52:28;41.70;60.20
8684;DHT22;4379;59.744;18.206;2023-06-14T07:54:55;42.30;62.00
8684;DHT22;4379;59.744;18.206;2023-06-14T07:57:23;42.70;61.50
8684;DHT22;4379;59.744;18.206;2023-06-14T07:59:51;41.70;62.60
8684;DHT22;4379;59.744;18.206;2023-06-14T08:02:18;42.10;62.70
8684;DHT22;4379;59.744;18.206;2023-06-14T08:04:45;42.60;60.60
8684;DHT22;4379;59.744;18.206;2023-06-14T08:07:15;41.80;62.10
8684;DHT22;4379;59.744;18.206;2023-06-14T08:09:42;41.30;62.00
8684;DHT22;4379;59.744;18.206;2023-06-14T08:12:10;40.90;61.60
8684;DHT22;4379;59.744;18.206;2023-06-14T08:14:39;40.90;62.00
8684;DHT22;4379;59.744;18.206;2023-06-14T08:17:07;41.50;63.60
8684;DHT22;4379;59.744;18.206;2023-06-14T08:19:34;40.70;65.40
8684;DHT22;4379;59.744;18.206;2023-06-14T08:22:01;40.40;64.00
8684;DHT22;4379;59.744;18.206;2023-06-14T08:24:29;40.00;64.60
8684;DHT22;4379;59.744;18.206;2023-06-14T08:26:57;39.70;65.80
8684;DHT22;4379;59.744;18.206;2023-06-14T08:29:24;39.80;65.20
8684;DHT22;4379;59.744;18.206;2023-06-14T08:31:52;39.20;67.10
8684;DHT22;4379;59.744;18.206;2023-06-14T08:34:19;39.80;64.90
8684;DHT22;4379;59.744;18.206;2023-06-14T08:36:47;38.10;67.80
8684;DHT22;4379;59.744;18.206;2023-06-14T08:39:14;37.10;68.20
8684;DHT22;4379;59.744;18.206;2023-06-14T08:41:46;34.80;72.50
8684;DHT22;4379;59.744;18.206;2023-06-14T08:44:16;35.00;72.30
8684;DHT22;4379;59.744;18.206;2023-06-14T08:46:44;34.20;73.50
8684;DHT22;4379;59.744;18.206;2023-06-14T08:49:12;33.80;74.50
8684;DHT22;4379;59.744;18.206;2023-06-14T08:51:40;33.80;75.20
8684;DHT22;4379;59.744;18.206;2023-06-14T08:54:10;33.80;76.80
8684;DHT22;4379;59.744;18.206;2023-06-14T08:56:39;33.70;76.60
8684;DHT22;4379;59.744;18.206;2023-06-14T08:59:09;33.30;76.80
8684;DHT22;4379;59.744;18.206;2023-06-14T09:01:37;32.30;77.40
8684;DHT22;4379;59.744;18.206;2023-06-14T09:04:05;32.40;77.90
8684;DHT22;4379;59.744;18.206;2023-06-14T09:06:32;32.10;77.40
8684;DHT22;4379;59.744;18.206;2023-06-14T09:09:00;32.00;78.20
8684;DHT22;4379;59.744;18.206;2023-06-14T09:11:28;32.30;78.80
8684;DHT22;4379;59.744;18.206;2023-06-14T09:13:55;32.40;77.30
8684;DHT22;4379;59.744;18.206;2023-06-14T09:16:22;31.80;77.00
8684;DHT22;4379;59.744;18.206;2023-06-14T09:18:50;31.00;78.60
8684;DHT22;4379;59.744;18.206;2023-06-14T09:21:17;30.50;79.70
8684;DHT22;4379;59.744;18.206;2023-06-14T09:23:46;30.70;79.00
8684;DHT22;4379;59.744;18.206;2023-06-14T09:26:16;30.80;80.00
8684;DHT22;4379;59.744;18.206;2023-06-14T09:28:44;31.10;80.20
8684;DHT22;4379;59.744;18.206;2023-06-14T09:31:16;30.80;78.60
8684;DHT22;4379;59.744;18.206;2023-06-14T09:33:45;29.80;79.70
8684;DHT22;4379;59.744;18.206;2023-06-14T09:36:22;29.30;81.40
8684;DHT22;4379;59.744;18.206;2023-06-14T09:41:38;29.60;81.10
8684;DHT22;4379;59.744;18.206;2023-06-14T09:44:08;30.20;80.30
8684;DHT22;4379;59.744;18.206;2023-06-14T09:46:43;30.60;79.80
8684;DHT22;4379;59.744;18.206;2023-06-14T09:49:11;30.90;79.90
8684;DHT22;4379;59.744;18.206;2023-06-14T09:51:45;29.70;79.10
8684;DHT22;4379;59.744;18.206;2023-06-14T09:54:18;29.60;80.20
8684;DHT22;4379;59.744;18.206;2023-06-14T09:56:48;29.00;81.00
8684;DHT22;4379;59.744;18.206;2023-06-14T09:59:21;29.00;81.60
8684;DHT22;4379;59.744;18.206;2023-06-14T10:01:58;28.50;81.80
8684;DHT22;4379;59.744;18.206;2023-06-14T10:04:29;28.60;82.50
8684;DHT22;4379;59.744;18.206;2023-06-14T10:06:58;28.80;83.30
8684;DHT22;4379;59.744;18.206;2023-06-14T10:09:27;29.10;81.80
8684;DHT22;4379;59.744;18.206;2023-06-14T10:11:58;29.60;80.40
8684;DHT22;4379;59.744;18.206;2023-06-14T10:14:26;29.30;80.40
8684;DHT22;4379;59.744;18.206;2023-06-14T10:17:04;29.20;81.40
8684;DHT22;4379;59.744;18.206;2023-06-14T10:19:50;28.70;80.20
8684;DHT22;4379;59.744;18.206;2023-06-14T10:22:37;27.90;82.40
8684;DHT22;4379;59.744;18.206;2023-06-14T10:25:13;27.60;81.80
8684;DHT22;4379;59.744;18.206;2023-06-14T10:27:44;27.50;82.90
8684;DHT22;4379;59.744;18.206;2023-06-14T10:30:15;27.90;84.50
8684;DHT22;4379;59.744;18.206;2023-06-14T10:33:05;28.40;85.70
8684;DHT22;4379;59.744;18.206;2023-06-14T10:35:34;29.40;81.40
8684;DHT22;4379;59.744;18.206;2023-06-14T10:38:12;28.70;80.20
8684;DHT22;4379;59.744;18.206;2023-06-14T10:40:39;29.40;82.10
8684;DHT22;4379;59.744;18.206;2023-06-14T10:43:22;29.40;81.10
8684;DHT22;4379;59.744;18.206;2023-06-14T10:46:15;29.30;81.70
8684;DHT22;4379;59.744;18.206;2023-06-14T10:48:44;28.50;82.10
8684;DHT22;4379;59.744;18.206;2023-06-14T10:51:19;28.40;82.60
8684;DHT22;4379;59.744;18.206;2023-06-14T10:53:50;28.10;81.90
8684;DHT22;4379;59.744;18.206;2023-06-14T10:56:30;27.50;85.40
8684;DHT22;4379;59.744;18.206;2023-06-14T10:58:58;28.00;83.90
8684;DHT22;4379;59.744;18.206;2023-06-14T11:04:10;27.50;83.90
8684;DHT22;4379;59.744;18.206;2023-06-14T11:06:47;27.70;84.60
8684;DHT22;4379;59.744;18.206;2023-06-14T11:12:10;28.10;84.00
8684;DHT22;4379;59.744;18.206;2023-06-14T11:14:39;28.70;83.20
8684;DHT22;4379;59.744;18.206;2023-06-14T11:17:07;28.10;84.30
8684;DHT22;4379;59.744;18.206;2023-06-14T11:19:34;28.00;82.90
8684;DHT22;4379;59.744;18.206;2023-06-14T11:22:02;27.60;85.50
8684;DHT22;4379;59.744;18.206;2023-06-14T11:24:29;27.80;85.20
8684;DHT22;4379;59.744;18.206;2023-06-14T11:26:56;28.10;84.00
8684;DHT22;4379;59.744;18.206;2023-06-14T11:29:24;28.20;84.10
8684;DHT22;4379;59.744;18.206;2023-06-14T11:31:54;27.70;84.40
8684;DHT22;4379;59.744;18.206;2023-06-14T11:34:22;27.00;85.50
8684;DHT22;4379;59.744;18.206;2023-06-14T11:36:49;27.20;84.70
8684;DHT22;4379;59.744;18.206;2023-06-14T11:39:16;27.50;86.00
8684;DHT22;4379;59.744;18.206;2023-06-14T11:41:45;27.50;86.00
8684;DHT22;4379;59.744;18.206;2023-06-14T11:44:12;28.00;86.00
8684;DHT22;4379;59.744;18.206;2023-06-14T11:46:40;27.90;84.20
8684;DHT22;4379;59.744;18.206;2023-06-14T11:49:07;28.20;84.70
8684;DHT22;4379;59.744;18.206;2023-06-14T11:51:36;28.70;83.50
8684;DHT22;4379;59.744;18.206;2023-06-14T11:54:06;29.00;81.90
8684;DHT22;4379;59.744;18.206;2023-06-14T11:56:37;28.90;82.30
8684;DHT22;4379;59.744;18.206;2023-06-14T11:59:04;28.80;82.30
8684;DHT22;4379;59.744;18.206;2023-06-14T12:01:36;28.20;83.00
8684;DHT22;4379;59.744;18.206;2023-06-14T12:04:05;27.00;83.90
8684;DHT22;4379;59.744;18.206;2023-06-14T12:06:33;26.80;84.60
8684;DHT22;4379;59.744;18.206;2023-06-14T12:09:04;27.00;85.80
8684;DHT22;4379;59.744;18.206;2023-06-14T12:11:35;27.40;86.20
8684;DHT22;4379;59.744;18.206;2023-06-14T12:14:04;27.50;85.20
8684;DHT22;4379;59.744;18.206;2023-06-14T12:16:34;27.60;85.60
8684;DHT22;4379;59.744;18.206;2023-06-14T12:19:29;27.70;82.70
8684;DHT22;4379;59.744;18.206;2023-06-14T12:22:03;28.00;83.80
8684;DHT22;4379;59.744;18.206;2023-06-14T12:24:32;27.90;84.30
8684;DHT22;4379;59.744;18.206;2023-06-14T12:26:59;27.80;84.30
8684;DHT22;4379;59.744;18.206;2023-06-14T12:29:27;28.40;84.50
8684;DHT22;4379;59.744;18.206;2023-06-14T12:31:54;28.20;83.20
8684;DHT22;4379;59.744;18.206;2023-06-14T12:34:24;28.00;83.90
8684;DHT22;4379;59.744;18.206;2023-06-14T12:36:51;27.50;85.10
8684;DHT22;4379;59.744;18.206;2023-06-14T12:39:21;27.70;84.60
8684;DHT22;4379;59.744;18.206;2023-06-14T12:41:48;27.90;83.60
8684;DHT22;4379;59.744;18.206;2023-06-14T12:44:16;28.10;84.20
8684;DHT22;4379;59.744;18.206;2023-06-14T12:46:43;27.80;84.70
8684;DHT22;4379;59.744;18.206;2023-06-14T12:49:12;28.40;83.10
8684;DHT22;4379;59.744;18.206;2023-06-14T12:51:40;28.40;83.50
8684;DHT22;4379;59.744;18.206;2023-06-14T12:54:07;28.30;84.40
8684;DHT22;4379;59.744;18.206;2023-06-14T12:56:35;27.90;85.00
8684;DHT22;4379;59.744;18.206;2023-06-14T12:59:03;28.00;84.30
8684;DHT22;4379;59.744;18.206;2023-06-14T13:01:31;27.90;82.80
8684;DHT22;4379;59.744;18.206;2023-06-14T13:03:58;27.50;84.80
8684;DHT22;4379;59.744;18.206;2023-06-14T13:06:26;27.50;85.60
8684;DHT22;4379;59.744;18.206;2023-06-14T13:08:53;27.50;85.90
8684;DHT22;4379;59.744;18.206;2023-06-14T13:11:22;27.00;87.20
8684;DHT22;4379;59.744;18.206;2023-06-14T13:13:49;26.90;86.70
8684;DHT22;4379;59.744;18.206;2023-06-14T13:16:19;26.60;85.90
8684;DHT22;4379;59.744;18.206;2023-06-14T13:18:46;26.30;85.90
8684;DHT22;4379;59.744;18.206;2023-06-14T13:21:14;26.60;86.90
8684;DHT22;4379;59.744;18.206;2023-06-14T13:23:41;26.30;84.80
8684;DHT22;4379;59.744;18.206;2023-06-14T13:26:09;26.30;87.00
8684;DHT22;4379;59.744;18.206;2023-06-14T13:28:37;26.30;88.00
8684;DHT22;4379;59.744;18.206;2023-06-14T13:31:04;25.70;86.80
8684;DHT22;4379;59.744;18.206;2023-06-14T13:33:31;26.00;88.10
8684;DHT22;4379;59.744;18.206;2023-06-14T13:35:59;25.90;87.80
8684;DHT22;4379;59.744;18.206;2023-06-14T13:38:26;26.00;88.00
8684;DHT22;4379;59.744;18.206;2023-06-14T13:40:54;26.20;86.80
8684;DHT22;4379;59.744;18.206;2023-06-14T13:43:22;26.30;88.30
8684;DHT22;4379;59.744;18.206;2023-06-14T13:45:50;26.40;87.20
8684;DHT22;4379;59.744;18.206;2023-06-14T13:48:17;26.50;87.50
8684;DHT22;4379;59.744;18.206;2023-06-14T13:50:45;26.80;89.80
8684;DHT22;4379;59.744;18.206;2023-06-14T13:53:13;27.20;86.30
8684;DHT22;4379;59.744;18.206;2023-06-14T13:55:41;26.90;87.90
8684;DHT22;4379;59.744;18.206;2023-06-14T13:58:08;26.80;87.20
8684;DHT22;4379;59.744;18.206;2023-06-14T14:00:36;26.60;86.00
8684;DHT22;4379;59.744;18.206;2023-06-14T14:03:07;26.20;88.20
8684;DHT22;4379;59.744;18.206;2023-06-14T14:05:36;26.40;88.30
8684;DHT22;4379;59.744;18.206;2023-06-14T14:08:03;26.50;87.60
8684;DHT22;4379;59.744;18.206;2023-06-14T14:10:31;26.30;88.40
8684;DHT22;4379;59.744;18.206;2023-06-14T14:12:58;26.40;87.00
8684;DHT22;4379;59.744;18.206;2023-06-14T14:15:26;26.40;88.50
8684;DHT22;4379;59.744;18.206;2023-06-14T14:17:54;26.40;88.70
8684;DHT22;4379;59.744;18.206;2023-06-14T14:20:24;26.30;88.10
8684;DHT22;4379;59.744;18.206;2023-06-14T14:22:52;25.80;87.60
8684;DHT22;4379;59.744;18.206;2023-06-14T14:25:19;25.60;88.60
8684;DHT22;4379;59.744;18.206;2023-06-14T14:27:46;25.80;90.00
8684;DHT22;4379;59.744;18.206;2023-06-14T14:30:14;25.90;88.90
8684;DHT22;4379;59.744;18.206;2023-06-14T14:32:44;26.10;89.40
8684;DHT22;4379;59.744;18.206;2023-06-14T14:35:12;26.30;89.20
8684;DHT22;4379;59.744;18.206;2023-06-14T14:37:39;26.50;87.80
8684;DHT22;4379;59.744;18.206;2023-06-14T14:40:07;26.30;90.10
8684;DHT22;4379;59.744;18.206;2023-06-14T14:42:36;26.30;89.20
8684;DHT22;4379;59.744;18.206;2023-06-14T14:45:05;26.30;90.30
8684;DHT22;4379;59.744;18.206;2023-06-14T14:47:33;26.30;89.20
8684;DHT22;4379;59.744;18.206;2023-06-14T14:50:01;26.60;88.20
8684;DHT22;4379;59.744;18.206;2023-06-14T14:52:28;26.60;88.20
8684;DHT22;4379;59.744;18.206;2023-06-14T14:54:55;26.30;88.60
8684;DHT22;4379;59.744;18.206;2023-06-14T14:57:23;26.10;90.10
8684;DHT22;4379;59.744;18.206;2023-06-14T14:59:50;25.90;89.40
8684;DHT22;4379;59.744;18.206;2023-06-14T15:02:18;26.10;88.90
8684;DHT22;4379;59.744;18.206;2023-06-14T15:04:46;26.20;90.10
8684;DHT22;4379;59.744;18.206;2023-06-14T15:07:13;26.10;89.00
8684;DHT22;4379;59.744;18.206;2023-06-14T15:09:41;26.20;90.90
8684;DHT22;4379;59.744;18.206;2023-06-14T15:12:09;26.20;89.10
8684;DHT22;4379;59.744;18.206;2023-06-14T15:14:38;26.20;89.10
8684;DHT22;4379;59.744;18.206;2023-06-14T15:17:05;26.10;90.10
8684;DHT22;4379;59.744;18.206;2023-06-14T15:19:34;25.90;90.10
8684;DHT22;4379;59.744;18.206;2023-06-14T15:22:03;25.80;90.40
8684;DHT22;4379;59.744;18.206;2023-06-14T15:24:32;25.70;90.50
8684;DHT22;4379;59.744;18.206;2023-06-14T15:27:11;25.80;90.50
8684;DHT22;4379;59.744;18.206;2023-06-14T15:29:41;26.10;90.30
8684;DHT22;4379;59.744;18.206;2023-06-14T15:32:09;26.30;90.00
8684;DHT22;4379;59.744;18.206;2023-06-14T15:34:36;26.30;90.10
8684;DHT22;4379;59.744;18.206;2023-06-14T15:37:06;26.20;90.20
8684;DHT22;4379;59.744;18.206;2023-06-14T15:39:34;25.70;90.20
8684;DHT22;4379;59.744;18.206;2023-06-14T15:42:02;25.50;90.20
8684;DHT22;4379;59.744;18.206;2023-06-14T15:44:30;25.50;90.20
8684;DHT22;4379;59.744;18.206;2023-06-14T15:46:58;25.50;91.00
8684;DHT22;4379;59.744;18.206;2023-06-14T15:49:25;25.30;90.50
8684;DHT22;4379;59.744;18.206;2023-06-14T15:51:53;25.40;90.70
8684;DHT22;4379;59.744;18.206;2023-06-14T15:54:20;25.40;91.10
8684;DHT22;4379;59.744;18.206;2023-06-14T15:56:47;25.20;91.10
8684;DHT22;4379;59.744;18.206;2023-06-14T15:59:15;25.50;90.90
8684;DHT22;4379;59.744;18.206;2023-06-14T16:01:42;25.60;91.10
8684;DHT22;4379;59.744;18.206;2023-06-14T16:04:09;25.50;90.90
8684;DHT22;4379;59.744;18.206;2023-06-14T16:06:37;25.50;90.50